Catàleg de serveis del Meteocat
Campanya meteocatpedra

Dades de l'estació automàtica Santa Coloma de Farners

?
?
Resum diari 21:30 TU
Dades diàries de l'estació meteorològica
Temperatura mitjana 23.2 °C
Temperatura màxima 30.5 °C 11:54 TU
Temperatura mínima 16.5 °C 2:00 TU
Humitat relativa mitjana 74%
Precipitació acumulada 0.8 mm
Ratxa màxima del vent (10 m) 31.7 km/h - 141º 15:32 TU
Irradiació solar global 22.7 MJ/m2

El tram horari està expressat en Temps Universal (TU). Cal sumar una hora en horari d'hivern i dues en horari d'estiu per passar a l'hora oficial.

Santa Coloma de Farners

Metadades estació meteorol´gica
Municipi Santa Coloma de Farners
Comarca Selva
Altitud 162 m
Data alta 26.03.2013
Estat actual Operativa
Dades de període
Període
TU
TM
°C
TX
°C
TN
°C
HRM
%
PPT
mm
VVM (10 m)
km/h
DVM (10 m)
graus
VVX (10 m)
km/h
RS
W/m2
00:00 - 00:30 17.8 18.0 17.4 92 0.0 2.2 312 5.8 0
00:30 - 01:00 17.2 17.4 17.1 94 0.0 2.9 281 5.8 0
01:00 - 01:30 17.2 17.4 17.1 94 0.0 2.5 279 5.4 0
01:30 - 02:00 16.8 17.2 16.5 94 0.0 2.5 306 5.0 0
02:00 - 02:30 16.7 16.9 16.5 95 0.0 2.2 304 4.7 0
02:30 - 03:00 17.0 17.3 16.8 94 0.0 2.9 290 5.8 0
03:00 - 03:30 17.3 17.4 17.1 93 0.0 2.2 286 4.7 0
03:30 - 04:00 17.0 17.1 16.9 94 0.0 2.2 315 5.4 0
04:00 - 04:30 17.2 17.8 16.9 95 0.0 7.2 281 12.6 0
04:30 - 05:00 18.0 18.3 17.8 89 0.0 5.4 300 8.3 9
05:00 - 05:30 18.5 18.7 18.3 86 0.0 5.0 297 9.4 32
05:30 - 06:00 18.9 19.2 18.7 84 0.0 4.0 290 8.6 54
06:00 - 06:30 19.6 20.1 19.2 81 0.0 2.5 281 5.0 113
06:30 - 07:00 20.9 22.0 20.1 76 0.1 0.7 242 2.5 211
07:00 - 07:30 22.9 23.9 22.0 66 0.0 1.8 130 7.2 394
07:30 - 08:00 23.7 24.7 23.0 61 0.0 4.0 104 10.8 423
08:00 - 08:30 25.0 25.8 24.3 57 0.0 5.4 115 12.2 600
08:30 - 09:00 26.0 26.7 25.4 52 0.0 5.0 85 11.9 565
09:00 - 09:30 26.6 27.3 25.8 49 0.0 4.7 52 10.4 516
09:30 - 10:00 27.1 27.7 26.7 48 0.0 5.4 101 14.4 557
10:00 - 10:30 28.1 29.1 27.3 48 0.0 7.6 156 15.5 820
10:30 - 11:00 29.2 30.0 28.7 47 0.0 10.8 161 26.3 878
11:00 - 11:30 29.2 29.6 28.9 49 0.0 11.5 152 25.6 915
11:30 - 12:00 29.6 30.5 28.8 50 0.0 11.5 156 24.5 949
12:00 - 12:30 29.5 30.0 29.0 52 0.0 12.6 145 26.6 922
12:30 - 13:00 29.3 30.1 28.6 54 0.0 12.6 141 28.1 880
13:00 - 13:30 28.8 29.2 28.3 57 0.0 14.8 147 29.5 770
13:30 - 14:00 28.2 29.1 27.3 61 0.0 12.6 158 28.1 485
14:00 - 14:30 27.8 28.8 27.3 61 0.0 11.9 154 27.7 511
14:30 - 15:00 27.4 27.9 27.2 61 0.0 15.5 142 28.8 557
15:00 - 15:30 27.5 28.0 26.9 62 0.0 15.1 147 31.3 533
15:30 - 16:00 27.4 27.9 26.4 62 0.0 12.6 152 31.7 411
16:00 - 16:30 24.9 26.3 24.0 76 0.7 8.3 161 23.0 164
16:30 - 17:00 24.0 24.2 23.8 81 0.0 8.3 162 20.5 130
17:00 - 17:30 23.7 23.8 23.6 78 0.0 8.6 150 18.0 64
17:30 - 18:00 23.7 23.8 23.7 77 0.0 8.6 171 17.6 86
18:00 - 18:30 23.6 23.7 23.5 76 0.0 6.1 173 15.1 31
18:30 - 19:00 23.4 23.5 23.2 77 0.0 4.7 165 11.5 16
19:00 - 19:30 23.1 23.2 22.9 78 0.0 3.6 180 9.7 3
19:30 - 20:00 22.8 22.9 22.7 78 0.0 5.8 166 11.9 0
20:00 - 20:30 22.5 22.6 22.3 80 0.0 4.0 199 8.3 0
20:30 - 21:00 21.9 22.3 21.2 86 0.0 4.0 274 7.2 0
21:00 - 21:30 21.0 21.2 20.7 94 0.0 2.9 299 7.2 0
21:30 - 22:00 20.6 20.7 20.5 96 0.0 3.2 292 6.5 0

Les dades en taronja només han passat un control de qualitat automàtic. Resta pendent la seva validació definitiva.